createdAt,value
2018-09-28T00:01:18.176Z,8.50
2018-09-28T00:03:46.996Z,8.40
2018-09-28T00:06:15.930Z,8.40
2018-09-28T00:08:44.844Z,8.30
2018-09-28T00:11:13.670Z,8.30
2018-09-28T00:13:42.596Z,8.30
2018-09-28T00:16:11.437Z,8.30
2018-09-28T00:18:40.433Z,8.30
2018-09-28T00:21:09.384Z,8.30
2018-09-28T00:23:38.232Z,8.30
2018-09-28T00:26:07.458Z,8.30
2018-09-28T00:28:36.219Z,8.20
2018-09-28T00:31:05.189Z,8.20
2018-09-28T00:33:34.004Z,8.20
2018-09-28T00:36:03.045Z,8.10
2018-09-28T00:38:31.968Z,8.10
2018-09-28T00:41:00.906Z,8.10
2018-09-28T00:43:29.818Z,8.10
2018-09-28T00:45:58.660Z,8.10
2018-09-28T00:48:27.515Z,8.10
2018-09-28T00:50:56.344Z,8.00
2018-09-28T00:53:25.271Z,7.90
2018-09-28T00:55:54.205Z,7.90
2018-09-28T00:58:23.112Z,7.90
2018-09-28T01:00:52.034Z,7.90
2018-09-28T01:03:20.885Z,7.90
2018-09-28T01:05:49.832Z,7.90
2018-09-28T01:08:18.756Z,7.80
2018-09-28T01:10:47.636Z,7.80
2018-09-28T01:13:16.561Z,7.80
2018-09-28T01:15:45.413Z,7.80
2018-09-28T01:18:14.301Z,7.70
2018-09-28T01:20:43.205Z,7.70
2018-09-28T01:23:12.110Z,7.60
2018-09-28T01:25:40.993Z,7.60
2018-09-28T01:28:09.954Z,7.60
2018-09-28T01:30:38.816Z,7.50
2018-09-28T01:33:07.760Z,7.50
2018-09-28T01:35:36.653Z,7.50
2018-09-28T01:38:05.529Z,7.50
2018-09-28T01:40:34.489Z,7.50
2018-09-28T01:43:03.433Z,7.40
2018-09-28T01:45:32.325Z,7.50
2018-09-28T01:48:01.189Z,7.40
2018-09-28T01:50:30.064Z,7.40
2018-09-28T01:52:58.985Z,7.40
2018-09-28T01:55:27.973Z,7.30
2018-09-28T01:57:56.908Z,7.40
2018-09-28T02:00:25.837Z,7.30
2018-09-28T02:02:54.790Z,7.30
2018-09-28T02:05:23.864Z,7.30
2018-09-28T02:07:52.989Z,7.30
2018-09-28T02:10:21.909Z,7.30
2018-09-28T02:12:50.840Z,7.20
2018-09-28T02:15:19.801Z,7.10
2018-09-28T02:17:48.888Z,7.00
2018-09-28T02:20:20.481Z,7.00
2018-09-28T02:23:02.163Z,7.00
2018-09-28T02:25:31.140Z,7.00
2018-09-28T02:28:00.588Z,7.10
2018-09-28T02:30:29.546Z,7.10
2018-09-28T02:32:58.476Z,7.10
2018-09-28T02:35:27.444Z,7.10
2018-09-28T02:37:56.322Z,7.10
2018-09-28T02:40:25.197Z,7.00
2018-09-28T02:42:54.141Z,7.00
2018-09-28T02:45:23.111Z,7.10
2018-09-28T02:47:51.974Z,7.00
2018-09-28T02:50:20.989Z,7.00
2018-09-28T02:52:49.961Z,7.00
2018-09-28T02:55:18.913Z,7.00
2018-09-28T02:57:47.853Z,7.00
2018-09-28T03:00:16.824Z,6.90
2018-09-28T03:02:45.671Z,6.90
2018-09-28T03:05:14.629Z,6.80
2018-09-28T03:07:43.622Z,6.80
2018-09-28T03:10:12.729Z,6.80
2018-09-28T03:12:42.165Z,6.80
2018-09-28T03:15:11.174Z,6.70
2018-09-28T03:17:40.165Z,6.70
2018-09-28T03:20:09.319Z,6.70
2018-09-28T03:22:38.306Z,6.70
2018-09-28T03:25:11.806Z,6.70
2018-09-28T03:27:41.211Z,6.70
2018-09-28T03:30:10.495Z,6.70
2018-09-28T03:32:39.567Z,6.60
2018-09-28T03:35:12.078Z,6.60
2018-09-28T03:37:41.127Z,6.60
2018-09-28T03:40:11.827Z,6.60
2018-09-28T03:42:40.850Z,6.60
2018-09-28T03:45:09.994Z,6.50
2018-09-28T03:47:40.018Z,6.50
2018-09-28T03:50:10.398Z,6.40
2018-09-28T03:52:39.425Z,6.40
2018-09-28T03:55:08.477Z,6.40
2018-09-28T03:57:37.576Z,6.40
2018-09-28T04:00:07.554Z,6.30
2018-09-28T04:02:36.613Z,6.30
2018-09-28T04:05:05.667Z,6.30
2018-09-28T04:07:34.718Z,6.30
2018-09-28T04:10:04.051Z,6.30
2018-09-28T04:12:33.053Z,6.30
2018-09-28T04:15:02.418Z,6.30
2018-09-28T04:17:31.391Z,6.30
2018-09-28T04:20:00.305Z,6.30
2018-09-28T04:22:29.272Z,6.30
2018-09-28T04:24:58.338Z,6.30
2018-09-28T04:27:27.268Z,6.30
2018-09-28T04:29:56.496Z,6.20
2018-09-28T04:32:25.831Z,6.20
2018-09-28T04:34:54.816Z,6.20
2018-09-28T04:37:24.043Z,6.20
2018-09-28T04:39:53.598Z,6.20
2018-09-28T04:42:23.086Z,6.10
2018-09-28T04:44:52.310Z,6.10
2018-09-28T04:47:21.202Z,6.10
2018-09-28T04:49:50.414Z,6.10
2018-09-28T04:52:19.337Z,6.10
2018-09-28T04:54:48.356Z,6.10
2018-09-28T04:57:17.245Z,6.10
2018-09-28T04:59:46.215Z,6.10
2018-09-28T05:02:15.099Z,6.10
2018-09-28T05:04:44.085Z,6.20
2018-09-28T05:07:12.968Z,6.20
2018-09-28T05:09:41.909Z,6.20
2018-09-28T05:12:10.809Z,6.20
2018-09-28T05:14:39.793Z,6.20
2018-09-28T05:17:08.894Z,6.20
2018-09-28T05:19:37.839Z,6.20
2018-09-28T05:22:06.800Z,6.20
2018-09-28T05:24:35.814Z,6.30
2018-09-28T05:27:05.092Z,6.30
2018-09-28T05:29:34.267Z,6.40
2018-09-28T05:32:03.290Z,6.50
2018-09-28T05:34:32.347Z,6.50
2018-09-28T05:37:01.293Z,6.60
2018-09-28T05:39:30.196Z,6.60
2018-09-28T05:41:59.129Z,6.70
2018-09-28T05:44:28.037Z,6.80
2018-09-28T05:46:56.981Z,6.80
2018-09-28T05:49:26.001Z,6.90
2018-09-28T05:51:55.012Z,7.00
2018-09-28T05:54:24.043Z,7.10
2018-09-28T05:56:53.022Z,7.20
2018-09-28T06:00:28.624Z,7.30
2018-09-28T06:03:02.605Z,7.30
2018-09-28T06:05:36.928Z,7.50
2018-09-28T06:08:05.891Z,7.50
2018-09-28T06:10:34.878Z,7.60
2018-09-28T06:13:04.377Z,7.70
2018-09-28T06:15:33.321Z,7.80
2018-09-28T06:18:02.273Z,7.90
2018-09-28T06:20:31.463Z,8.00
2018-09-28T06:23:00.326Z,8.10
2018-09-28T06:25:29.216Z,8.20
2018-09-28T06:27:58.071Z,8.30
2018-09-28T06:30:27.004Z,8.40
2018-09-28T06:32:55.944Z,8.60
2018-09-28T06:35:24.969Z,8.70
2018-09-28T06:37:54.025Z,8.80
2018-09-28T06:40:22.948Z,8.90
2018-09-28T06:42:51.777Z,9.00
2018-09-28T06:45:20.949Z,9.10
2018-09-28T06:47:49.884Z,9.10
2018-09-28T06:50:18.786Z,9.20
2018-09-28T06:52:47.817Z,9.40
2018-09-28T06:55:16.785Z,9.50
2018-09-28T06:57:45.810Z,9.60
2018-09-28T07:00:14.870Z,9.70
2018-09-28T07:02:43.832Z,9.80
2018-09-28T07:05:12.894Z,9.80
2018-09-28T07:07:41.880Z,9.90
2018-09-28T07:10:10.774Z,10.00
2018-09-28T07:12:39.662Z,10.10
2018-09-28T07:15:08.594Z,10.20
2018-09-28T07:17:37.479Z,10.30
2018-09-28T07:20:06.472Z,10.40
2018-09-28T07:22:35.378Z,10.60
2018-09-28T07:25:04.364Z,10.70
2018-09-28T07:27:33.262Z,10.90
2018-09-28T07:30:02.221Z,11.00
2018-09-28T07:32:31.114Z,11.10
2018-09-28T07:34:59.984Z,11.30
2018-09-28T07:37:28.901Z,11.50
2018-09-28T07:39:57.873Z,11.60
2018-09-28T07:42:26.920Z,11.80
2018-09-28T07:44:55.913Z,11.90
2018-09-28T07:47:24.852Z,12.10
2018-09-28T07:49:53.784Z,12.30
2018-09-28T07:52:22.682Z,12.40
2018-09-28T07:54:51.657Z,12.50
2018-09-28T07:57:20.636Z,12.70
2018-09-28T07:59:49.594Z,12.80
2018-09-28T08:02:18.591Z,12.90
2018-09-28T08:04:47.617Z,13.10
2018-09-28T08:07:16.589Z,13.30
2018-09-28T08:09:45.546Z,13.50
2018-09-28T08:12:14.533Z,13.70
2018-09-28T08:14:43.446Z,13.80
2018-09-28T08:17:12.335Z,14.00
2018-09-28T08:19:41.269Z,14.20
2018-09-28T08:22:10.270Z,14.30
2018-09-28T08:24:39.196Z,14.50
2018-09-28T08:27:08.089Z,14.70
2018-09-28T08:29:37.001Z,14.90
2018-09-28T08:32:05.926Z,15.00
2018-09-28T08:34:34.853Z,15.20
2018-09-28T08:37:03.752Z,15.30
2018-09-28T08:39:32.652Z,15.40
2018-09-28T08:42:01.624Z,15.60
2018-09-28T08:44:31.049Z,15.70
2018-09-28T08:46:59.938Z,15.80
2018-09-28T08:49:28.877Z,16.00
2018-09-28T08:51:58.369Z,16.20
2018-09-28T08:54:27.244Z,16.30
2018-09-28T08:56:56.179Z,16.40
2018-09-28T08:59:25.258Z,16.50
2018-09-28T09:01:54.290Z,16.60
2018-09-28T09:04:23.221Z,16.80
2018-09-28T09:06:52.132Z,17.00
2018-09-28T09:09:21.029Z,17.10
2018-09-28T09:11:49.963Z,17.20
2018-09-28T09:14:18.868Z,17.30
2018-09-28T09:16:47.758Z,17.50
2018-09-28T09:19:16.665Z,17.50
2018-09-28T09:21:45.655Z,17.70
2018-09-28T09:24:14.617Z,17.90
2018-09-28T09:26:43.577Z,18.00
2018-09-28T09:29:12.541Z,18.20
2018-09-28T09:31:41.566Z,18.40
2018-09-28T09:34:10.584Z,18.60
2018-09-28T09:36:39.621Z,18.80
2018-09-28T09:39:09.833Z,19.00
2018-09-28T09:41:38.841Z,19.20
2018-09-28T09:44:07.882Z,19.40
2018-09-28T09:46:36.915Z,19.50
2018-09-28T09:49:05.983Z,19.70
2018-09-28T09:51:34.988Z,19.80
2018-09-28T09:54:04.203Z,19.90
2018-09-28T09:56:33.153Z,20.10
2018-09-28T09:59:02.105Z,20.20
2018-09-28T10:01:36.243Z,20.40
2018-09-28T10:04:08.820Z,20.50
2018-09-28T10:06:37.728Z,20.60
2018-09-28T10:09:10.205Z,20.60
2018-09-28T10:11:39.262Z,20.90
2018-09-28T10:14:08.307Z,21.10
2018-09-28T10:16:37.314Z,21.20
2018-09-28T10:19:06.688Z,21.50
2018-09-28T10:21:35.690Z,21.70
2018-09-28T10:24:04.605Z,21.90
2018-09-28T10:26:33.501Z,21.90
2018-09-28T10:29:02.381Z,22.10
2018-09-28T10:31:31.293Z,22.50
2018-09-28T10:34:00.278Z,22.70
2018-09-28T10:36:29.149Z,23.00
2018-09-28T10:38:58.017Z,23.30
2018-09-28T10:41:26.910Z,23.50
2018-09-28T10:43:56.117Z,23.60
2018-09-28T10:46:25.067Z,23.80
2018-09-28T10:48:53.944Z,23.80
2018-09-28T10:51:22.972Z,23.90
2018-09-28T10:53:51.920Z,24.00
2018-09-28T10:56:20.890Z,24.20
2018-09-28T10:58:49.856Z,24.40
2018-09-28T11:01:19.273Z,24.70
2018-09-28T11:03:48.562Z,24.70
2018-09-28T11:06:17.589Z,24.90
2018-09-28T11:08:46.674Z,25.10
2018-09-28T11:11:15.662Z,25.20
2018-09-28T11:13:44.828Z,25.30
2018-09-28T11:16:13.835Z,25.40
2018-09-28T11:18:42.853Z,25.40
2018-09-28T11:21:11.875Z,25.30
2018-09-28T11:23:40.868Z,25.30
2018-09-28T11:26:09.912Z,25.50
2018-09-28T11:28:38.794Z,25.80
2018-09-28T11:31:07.672Z,26.00
2018-09-28T11:33:36.596Z,26.00
2018-09-28T11:36:07.809Z,26.20
2018-09-28T11:38:36.741Z,26.10
2018-09-28T11:41:08.794Z,26.20
2018-09-28T11:43:37.752Z,26.20
2018-09-28T11:46:07.925Z,26.00
2018-09-28T11:48:36.797Z,26.30
2018-09-28T11:51:08.080Z,26.60
2018-09-28T11:53:37.042Z,26.90
2018-09-28T11:56:07.884Z,27.10
2018-09-28T11:58:37.060Z,27.20
2018-09-28T12:01:07.636Z,27.30
2018-09-28T12:03:36.629Z,27.30
2018-09-28T12:06:07.859Z,27.10
2018-09-28T12:08:36.995Z,27.10
2018-09-28T12:11:07.672Z,27.40
2018-09-28T12:13:36.825Z,27.60
2018-09-28T12:16:07.612Z,27.80
2018-09-28T12:18:36.776Z,27.90
2018-09-28T12:21:07.977Z,27.90
2018-09-28T12:23:36.960Z,27.90
2018-09-28T12:26:07.904Z,28.10
2018-09-28T12:28:36.853Z,28.10
2018-09-28T12:31:07.653Z,28.00
2018-09-28T12:33:36.910Z,28.10
2018-09-28T12:36:07.983Z,28.30
2018-09-28T12:38:36.861Z,28.30
2018-09-28T12:41:07.713Z,28.40
2018-09-28T12:43:36.634Z,28.40
2018-09-28T12:46:07.885Z,28.30
2018-09-28T12:48:36.769Z,28.40
2018-09-28T12:51:08.741Z,28.40
2018-09-28T12:53:37.731Z,28.30
2018-09-28T12:56:08.224Z,28.50
2018-09-28T12:58:37.146Z,28.60
2018-09-28T13:01:08.171Z,28.70
2018-09-28T13:03:36.957Z,28.80
2018-09-28T13:06:05.965Z,28.80
2018-09-28T13:08:34.914Z,28.80
2018-09-28T13:11:03.893Z,28.80
2018-09-28T13:13:32.828Z,28.70
2018-09-28T13:16:01.829Z,28.60
2018-09-28T13:18:30.801Z,28.70
2018-09-28T13:20:59.728Z,28.80
2018-09-28T13:23:28.658Z,28.90
2018-09-28T13:25:57.624Z,29.00
2018-09-28T13:28:26.800Z,29.30
2018-09-28T13:30:55.740Z,29.80
2018-09-28T13:33:24.769Z,30.10
2018-09-28T13:35:53.643Z,30.30
2018-09-28T13:38:22.875Z,30.80
2018-09-28T13:40:51.782Z,31.30
2018-09-28T13:43:20.724Z,32.30
2018-09-28T13:45:49.681Z,33.00
2018-09-28T13:48:18.606Z,33.70
2018-09-28T13:50:47.960Z,34.40
2018-09-28T13:53:16.842Z,34.70
2018-09-28T13:55:45.748Z,35.30
2018-09-28T13:58:14.779Z,35.60
2018-09-28T14:00:43.830Z,35.90
2018-09-28T14:03:12.740Z,36.00
2018-09-28T14:05:41.693Z,36.30
2018-09-28T14:08:10.725Z,36.50
2018-09-28T14:10:39.802Z,36.70
2018-09-28T14:13:08.880Z,37.00
2018-09-28T14:15:38.384Z,37.30
2018-09-28T14:18:08.291Z,37.50
2018-09-28T14:20:38.477Z,37.60
2018-09-28T14:23:07.546Z,37.90
2018-09-28T14:25:36.416Z,37.90
2018-09-28T14:28:05.321Z,38.10
2018-09-28T14:30:34.147Z,38.40
2018-09-28T14:33:03.017Z,38.70
2018-09-28T14:35:31.897Z,38.50
2018-09-28T14:38:00.757Z,38.30
2018-09-28T14:40:29.706Z,38.40
2018-09-28T14:42:58.572Z,38.60
2018-09-28T14:45:27.488Z,37.70
2018-09-28T14:47:56.354Z,37.10
2018-09-28T14:50:25.524Z,37.30
2018-09-28T14:52:54.401Z,37.90
2018-09-28T14:55:23.463Z,38.20
2018-09-28T14:57:52.574Z,38.50
2018-09-28T15:00:22.439Z,38.60
2018-09-28T15:02:51.357Z,38.40
2018-09-28T15:05:20.717Z,38.10
2018-09-28T15:07:50.524Z,38.00
2018-09-28T15:10:19.934Z,38.10
2018-09-28T15:12:49.193Z,38.30
2018-09-28T15:15:18.131Z,38.00
2018-09-28T15:17:46.987Z,37.60
2018-09-28T15:20:16.649Z,37.40
2018-09-28T15:22:45.569Z,36.90
2018-09-28T15:25:15.026Z,36.10
2018-09-28T15:27:43.892Z,36.00
2018-09-28T15:30:13.728Z,36.20
2018-09-28T15:32:42.712Z,36.30
2018-09-28T15:35:12.276Z,36.30
2018-09-28T15:37:41.190Z,36.30
2018-09-28T15:40:10.354Z,36.00
2018-09-28T15:42:39.997Z,35.30
2018-09-28T15:45:09.001Z,33.70
2018-09-28T15:47:40.658Z,31.10
2018-09-28T15:50:09.642Z,29.00
2018-09-28T15:52:39.041Z,27.20
2018-09-28T15:55:08.117Z,26.10
2018-09-28T15:57:44.660Z,25.30
2018-09-28T16:00:15.271Z,24.70
2018-09-28T16:02:44.272Z,24.20
2018-09-28T16:05:14.105Z,23.80
2018-09-28T16:07:43.752Z,23.50
2018-09-28T16:10:12.727Z,23.30
2018-09-28T16:12:41.681Z,23.10
2018-09-28T16:15:10.688Z,22.70
2018-09-28T16:17:39.659Z,22.30
2018-09-28T16:20:08.626Z,21.90
2018-09-28T16:22:37.582Z,21.60
2018-09-28T16:25:06.669Z,21.30
2018-09-28T16:27:35.644Z,21.10
2018-09-28T16:30:04.743Z,21.00
2018-09-28T16:32:33.786Z,20.90
2018-09-28T16:35:03.746Z,20.70
2018-09-28T16:37:32.759Z,20.60
2018-09-28T16:40:01.644Z,20.60
2018-09-28T16:42:30.588Z,20.60
2018-09-28T16:44:59.542Z,20.40
2018-09-28T16:47:28.470Z,20.20
2018-09-28T16:49:57.488Z,20.10
2018-09-28T16:52:26.449Z,20.10
2018-09-28T16:54:55.429Z,19.90
2018-09-28T16:57:24.383Z,19.70
2018-09-28T16:59:53.474Z,19.50
2018-09-28T17:02:22.378Z,19.50
2018-09-28T17:04:51.304Z,19.40
2018-09-28T17:07:20.242Z,19.20
2018-09-28T17:09:49.199Z,19.10
2018-09-28T17:12:18.142Z,19.00
2018-09-28T17:14:47.036Z,18.90
2018-09-28T17:17:16.045Z,18.80
2018-09-28T17:19:45.123Z,18.80
2018-09-28T17:22:14.173Z,18.70
2018-09-28T17:24:43.248Z,18.60
2018-09-28T17:27:12.193Z,18.50
2018-09-28T17:29:41.150Z,18.40
2018-09-28T17:32:16.036Z,18.30
2018-09-28T17:34:45.033Z,18.10
2018-09-28T17:37:14.423Z,17.90
2018-09-28T17:39:43.434Z,17.70
2018-09-28T17:42:12.469Z,17.50
2018-09-28T17:44:41.805Z,17.50
2018-09-28T17:47:10.975Z,17.40
2018-09-28T17:49:39.969Z,17.30
2018-09-28T17:52:09.221Z,17.30
2018-09-28T17:54:38.282Z,17.30
2018-09-28T17:57:07.572Z,17.20
2018-09-28T17:59:36.581Z,17.10
2018-09-28T18:02:05.626Z,17.10
2018-09-28T18:04:34.626Z,17.00
2018-09-28T18:07:03.688Z,16.90
2018-09-28T18:09:32.686Z,16.90
2018-09-28T18:12:01.831Z,16.70
2018-09-28T18:14:30.821Z,16.60
2018-09-28T18:16:59.864Z,16.50
2018-09-28T18:19:29.918Z,16.40
2018-09-28T18:21:58.976Z,16.30
2018-09-28T18:24:28.005Z,16.20
2018-09-28T18:26:57.922Z,16.10
2018-09-28T18:29:26.942Z,16.00
2018-09-28T18:31:55.902Z,16.00
2018-09-28T18:34:24.911Z,16.00
2018-09-28T18:36:53.837Z,16.00
2018-09-28T18:39:22.816Z,15.90
2018-09-28T18:41:51.856Z,15.90
2018-09-28T18:44:20.907Z,15.80
2018-09-28T18:46:49.937Z,15.70
2018-09-28T18:49:18.947Z,15.60
2018-09-28T18:51:48.142Z,15.60
2018-09-28T18:54:17.121Z,15.60
2018-09-28T18:56:46.146Z,15.50
2018-09-28T18:59:15.217Z,15.40
2018-09-28T19:01:44.284Z,15.30
2018-09-28T19:04:13.451Z,15.30
2018-09-28T19:06:43.527Z,15.20
2018-09-28T19:09:13.413Z,15.10
2018-09-28T19:11:42.892Z,15.00
2018-09-28T19:14:12.252Z,14.90
2018-09-28T19:16:41.790Z,14.90
2018-09-28T19:19:11.461Z,14.90
2018-09-28T19:21:40.724Z,14.90
2018-09-28T19:24:11.202Z,14.80
2018-09-28T19:26:40.708Z,14.70
2018-09-28T19:29:10.493Z,14.60
2018-09-28T19:31:39.850Z,14.40
2018-09-28T19:34:08.983Z,14.40
2018-09-28T19:36:37.986Z,14.40
2018-09-28T19:39:09.840Z,14.40
2018-09-28T19:41:39.479Z,14.40
2018-09-28T19:44:09.743Z,14.40
2018-09-28T19:46:38.752Z,14.40
2018-09-28T19:49:07.688Z,14.30
2018-09-28T19:51:36.630Z,14.30
2018-09-28T19:54:05.553Z,14.20
2018-09-28T19:56:34.533Z,14.30
2018-09-28T19:59:03.833Z,14.20
2018-09-28T20:01:32.731Z,14.20
2018-09-28T20:04:01.609Z,14.20
2018-09-28T20:06:30.494Z,14.10
2018-09-28T20:08:59.369Z,13.90
2018-09-28T20:11:28.344Z,13.80
2018-09-28T20:13:57.344Z,13.60
2018-09-28T20:16:26.729Z,13.60
2018-09-28T20:18:55.600Z,13.60
2018-09-28T20:21:24.533Z,13.70
2018-09-28T20:23:53.605Z,13.70
2018-09-28T20:26:23.849Z,13.70
2018-09-28T20:28:52.937Z,13.70
2018-09-28T20:31:22.700Z,13.60
2018-09-28T20:33:51.721Z,13.50
2018-09-28T20:36:20.621Z,13.40
2018-09-28T20:38:49.523Z,13.40
2018-09-28T20:41:18.544Z,13.40
2018-09-28T20:43:47.497Z,13.50
2018-09-28T20:46:16.382Z,13.50
2018-09-28T20:48:45.404Z,13.40
2018-09-28T20:51:14.462Z,13.40
2018-09-28T20:53:43.424Z,13.30
2018-09-28T20:56:12.283Z,13.30
2018-09-28T20:58:41.329Z,13.20
2018-09-28T21:01:10.430Z,13.10
2018-09-28T21:03:39.376Z,13.10
2018-09-28T21:06:08.341Z,13.10
2018-09-28T21:08:37.262Z,13.10
2018-09-28T21:11:06.229Z,13.10
2018-09-28T21:13:35.257Z,13.10
2018-09-28T21:16:04.176Z,13.10
2018-09-28T21:18:33.109Z,13.10
2018-09-28T21:21:02.068Z,13.00
2018-09-28T21:23:31.023Z,13.00
2018-09-28T21:26:00.025Z,13.00
2018-09-28T21:28:28.881Z,12.90
2018-09-28T21:30:57.816Z,12.90
2018-09-28T21:33:26.939Z,12.80
2018-09-28T21:35:56.090Z,12.80
2018-09-28T21:38:25.520Z,12.80
2018-09-28T21:40:54.561Z,12.80
2018-09-28T21:43:23.582Z,12.80
2018-09-28T21:45:52.578Z,12.80
2018-09-28T21:48:21.517Z,12.80
2018-09-28T21:50:50.505Z,12.80
2018-09-28T21:53:19.531Z,12.80
2018-09-28T21:55:48.589Z,12.80
2018-09-28T21:58:17.701Z,12.70
2018-09-28T22:00:50.792Z,12.60
2018-09-28T22:03:19.727Z,12.60
2018-09-28T22:05:48.794Z,12.50
2018-09-28T22:08:17.917Z,12.50
2018-09-28T22:10:46.902Z,12.50
2018-09-28T22:13:15.844Z,12.50
2018-09-28T22:15:44.934Z,12.50
2018-09-28T22:18:13.897Z,12.50
2018-09-28T22:20:42.809Z,12.50
2018-09-28T22:23:11.880Z,12.40
2018-09-28T22:25:40.884Z,12.40
2018-09-28T22:28:09.828Z,12.40
2018-09-28T22:30:38.768Z,12.40
2018-09-28T22:33:07.728Z,12.30
2018-09-28T22:35:36.704Z,12.30
2018-09-28T22:38:05.665Z,12.20
2018-09-28T22:40:34.712Z,12.10
2018-09-28T22:43:03.668Z,11.90
2018-09-28T22:45:32.598Z,12.00
2018-09-28T22:48:01.565Z,12.00
2018-09-28T22:50:30.499Z,12.00
2018-09-28T22:52:59.533Z,12.10
2018-09-28T22:55:28.516Z,12.10
2018-09-28T22:57:57.495Z,12.10
2018-09-28T23:00:26.496Z,12.10
2018-09-28T23:02:55.560Z,12.10
2018-09-28T23:05:24.565Z,12.20
2018-09-28T23:07:53.528Z,12.20
2018-09-28T23:10:22.506Z,12.20
2018-09-28T23:12:51.402Z,12.20
2018-09-28T23:15:20.362Z,12.20
2018-09-28T23:17:49.222Z,12.20
2018-09-28T23:20:18.172Z,12.30
2018-09-28T23:22:47.132Z,12.30
2018-09-28T23:25:16.058Z,12.30
2018-09-28T23:27:45.016Z,12.20
2018-09-28T23:30:13.920Z,12.20
2018-09-28T23:32:42.863Z,12.20
2018-09-28T23:35:11.984Z,12.30
2018-09-28T23:37:40.913Z,12.30
2018-09-28T23:40:09.868Z,12.30
2018-09-28T23:42:38.809Z,12.30
2018-09-28T23:45:08.342Z,12.30
2018-09-28T23:47:37.361Z,12.40
2018-09-28T23:50:06.384Z,12.40
2018-09-28T23:52:35.421Z,12.50
2018-09-28T23:55:04.697Z,12.50
2018-09-28T23:57:33.616Z,12.60
